Ikan Parang — 9V9099 — position and weather

sailwx.info

Track history (hours):
 
Tides and Currents Weather Stations Pressure Air Temp Water Temp Dewpoint Dewpoint Depression Visibility Wind Speed Wind Dir Waves Ship Positions

Ikan Parang

Last reported at 2014-Sep-12 02:29 UTC. Time now 2014-Oct-20 18:08 UTC.
Position S 28°56' E 032°09'.
Warning: this ship's position is 38 days out of date.

Length 183 m; draft 10.3 m.

Type: Cargo ship. MMSI: 566238000.

Date/timePositionNaut miles runAvg speedWind from/ knotsBaromVisibWave heightAir tempDewpointWater temp
2014-Sep-12 02:29S 28°56' E 032°09'9 0.2
2014-Sep-10 00:28S 29°05' E 032°08'8 8.9
2014-Sep-09 23:33S 29°13' E 032°06'8 8.3
2014-Sep-09 22:33S 29°21' E 032°04'8 7.7
2014-Sep-09 21:33S 29°27' E 031°59'8 7.5
2014-Sep-09 20:32S 29°32' E 031°53'7 6.8
2014-Sep-09 19:33S 29°37' E 031°47'9 9.3
2014-Sep-09 18:33S 29°40' E 031°37'1010.2
2014-Sep-09 17:33S 29°44' E 031°26'1110.7
2014-Sep-09 16:33S 29°47' E 031°15'1110.6
2014-Sep-09 15:33S 29°52' E 031°04'3 0.5
2014-Sep-09 09:22S 29°53' E 031°00'0 0.0
2014-Sep-09 08:22S 29°53' E 031°00'0 0.0
2014-Sep-09 06:28S 29°53' E 031°00'0 0.0
2014-Sep-09 04:22S 29°53' E 031°00'0 0.0
2014-Sep-09 03:16S 29°53' E 031°00'0 0.0
2014-Sep-09 02:22S 29°53' E 031°00'0 0.0
2014-Sep-09 01:28S 29°53' E 031°00'0 0.0
2014-Sep-09 00:28S 29°53' E 031°00'0 0.0
2014-Sep-08 23:28S 29°53' E 031°00'0 0.0
2014-Sep-08 22:28S 29°53' E 031°00'0 0.0
2014-Sep-08 21:28S 29°53' E 031°00'0 0.0
2014-Sep-08 20:28S 29°53' E 031°00'0 0.0
2014-Sep-08 19:22S 29°53' E 031°00'0 0.0
2014-Sep-08 18:32S 29°53' E 031°00'4 3.7
2014-Sep-08 17:33S 29°51' E 031°04'5 4.6
2014-Sep-08 16:33S 29°48' E 031°08'1 0.6
2014-Sep-08 15:14S 29°48' E 031°09'0 0.0
2014-Sep-08 14:25S 29°48' E 031°09'0 0.0
2014-Sep-08 13:25S 29°48' E 031°09'0 0.0
2014-Sep-08 12:31S 29°48' E 031°09'0 0.0
2014-Sep-08 11:25S 29°48' E 031°09'0 0.0
2014-Sep-08 10:31S 29°48' E 031°09'0 0.0
2014-Sep-08 09:20S 29°48' E 031°09'0 0.0
2014-Sep-08 08:13S 29°48' E 031°09'0 0.1
2014-Sep-08 07:31S 29°48' E 031°09'5 4.6
2014-Sep-08 06:32S 29°51' E 031°05'4 4.3
2014-Sep-08 05:33S 29°52' E 031°01'1 0.6
2014-Sep-08 04:15S 29°53' E 031°00'0 0.0
2014-Sep-08 03:33S 29°53' E 031°00'0 0.0
2014-Sep-08 02:27S 29°53' E 031°00'0 0.0
2014-Sep-08 01:27S 29°53' E 031°00'0 0.0
2014-Sep-08 00:27S 29°53' E 031°00'0 0.0
2014-Sep-07 23:27S 29°53' E 031°00'0 0.0
2014-Sep-07 22:21S 29°53' E 031°00'0 0.0
2014-Sep-07 21:27S 29°53' E 031°00'0 0.0
2014-Sep-07 19:33S 29°53' E 031°00'0 0.0
2014-Sep-07 18:21S 29°53' E 031°00'0 0.0
2014-Sep-07 17:33S 29°53' E 031°00'0 0.0
2014-Sep-07 16:33S 29°53' E 031°00'0 0.0
2014-Sep-07 15:33S 29°53' E 031°00'0 0.0
2014-Sep-07 14:09S 29°53' E 031°00'0 0.0
2014-Sep-07 13:33S 29°53' E 031°00'0 0.0
2014-Sep-07 12:27S 29°53' E 031°00'0 0.0
2014-Sep-07 11:33S 29°53' E 031°00'0 0.0
2014-Sep-07 09:15S 29°53' E 031°00'0 0.0
2014-Sep-07 08:21S 29°53' E 031°00'0 0.0
2014-Sep-07 07:33S 29°53' E 031°00'0 0.0
2014-Sep-07 01:15S 29°53' E 031°00'0 0.0
2014-Sep-07 00:15S 29°53' E 031°00'0 0.0
2014-Sep-06 22:27S 29°53' E 031°00'0 0.0
2014-Sep-06 20:27S 29°53' E 031°00'0 0.0
2014-Sep-06 18:27S 29°53' E 031°00'0 0.0
2014-Sep-06 15:33S 29°53' E 031°00'0 0.0
2014-Sep-06 14:03S 29°53' E 031°00'0 0.0
2014-Sep-06 11:09S 29°53' E 031°00'0 0.0
2014-Sep-06 10:27S 29°53' E 031°00'0 0.0
2014-Sep-06 08:21S 29°53' E 031°00'0 0.0
2014-Sep-06 07:27S 29°53' E 031°00'0 0.0
2014-Sep-06 06:03S 29°53' E 031°00'0 0.0
2014-Sep-06 05:27S 29°53' E 031°00'0 0.0
2014-Sep-06 04:03S 29°53' E 031°00'0 0.0
2014-Sep-06 03:27S 29°53' E 031°00'0 0.0
2014-Sep-06 01:33S 29°53' E 031°00'0 0.0
2014-Sep-06 00:33S 29°53' E 031°00'0 0.0
2014-Sep-05 23:21S 29°53' E 031°00'0 0.0
2014-Sep-05 22:21S 29°53' E 031°00'0 0.0
2014-Sep-05 21:21S 29°53' E 031°00'0 0.0
2014-Sep-05 20:27S 29°53' E 031°00'0 0.0
2014-Sep-05 17:33S 29°53' E 031°00'0 0.0
2014-Sep-05 16:33S 29°53' E 031°00'0 0.0
2014-Sep-05 15:33S 29°53' E 031°00'0 0.0
2014-Sep-05 14:21S 29°53' E 031°00'0 0.0
2014-Sep-05 12:27S 29°53' E 031°00'0 0.0
2014-Sep-05 11:27S 29°53' E 031°00'0 0.0
2014-Sep-05 09:33S 29°53' E 031°00'0 0.0
2014-Sep-05 08:33S 29°53' E 031°00'0 0.0
2014-Sep-05 07:21S 29°53' E 031°00'0 0.0
2014-Sep-05 06:33S 29°53' E 031°00'0 0.0
2014-Sep-05 05:33S 29°53' E 031°00'0 0.0
2014-Sep-05 04:27S 29°53' E 031°00'0 0.0
2014-Sep-05 02:33S 29°53' E 031°00'0 0.0
2014-Sep-05 01:27S 29°53' E 031°00'0 0.0
2014-Sep-05 00:33S 29°53' E 031°00'0 0.0
2014-Sep-04 23:33S 29°53' E 031°00'0 0.0
2014-Sep-04 22:15S 29°53' E 031°00'0 0.0
2014-Sep-04 21:33S 29°53' E 031°00'0 0.0
2014-Sep-04 16:33S 29°53' E 031°00'0 0.0
2014-Sep-04 15:27S 29°53' E 031°00'0 0.0
2014-Sep-04 14:33S 29°53' E 031°00'0 0.0
2014-Sep-04 13:33S 29°53' E 031°00'0 0.0
2014-Sep-04 12:15S 29°53' E 031°00'0 0.0
2014-Sep-04 08:33S 29°53' E 031°00'0 0.0
2014-Sep-04 07:21S 29°53' E 031°00'0 0.0
2014-Sep-04 05:21S 29°53' E 031°00'0 0.0
2014-Sep-04 04:33S 29°53' E 031°00'0 0.0
2014-Sep-04 03:33S 29°53' E 031°00'0 0.0
2014-Sep-04 02:33S 29°53' E 031°00'0 0.0
2014-Sep-04 01:33S 29°53' E 031°00'0 0.0
2014-Sep-04 00:27S 29°53' E 031°00'0 0.0
2014-Sep-03 21:33S 29°53' E 031°00'0 0.0
2014-Sep-03 14:33S 29°53' E 031°00'0 0.0
2014-Sep-03 13:33S 29°53' E 031°00'0 0.0
2014-Sep-03 12:28S 29°53' E 031°00'0 0.0
2014-Sep-03 08:27S 29°53' E 031°00'0 0.0
2014-Sep-03 05:27S 29°53' E 031°00'0 0.0
2014-Sep-03 03:27S 29°53' E 031°00'0 0.0
2014-Sep-03 01:33S 29°53' E 031°00'0 0.0
2014-Sep-02 23:27S 29°53' E 031°00'0 0.0
2014-Sep-02 22:21S 29°53' E 031°00'0 0.0
2014-Sep-02 21:33S 29°53' E 031°00'0 0.0
2014-Sep-02 20:27S 29°53' E 031°00'0 0.0
2014-Sep-02 19:21S 29°53' E 031°00'0 0.0
2014-Sep-02 18:27S 29°53' E 031°00'0 0.0
2014-Sep-02 17:15S 29°53' E 031°00'0 0.0
2014-Sep-02 15:33S 29°53' E 031°00'0 0.0
2014-Sep-02 14:33S 29°53' E 031°00'0 0.0
2014-Sep-02 12:27S 29°53' E 031°00'0 0.0
2014-Sep-02 11:27S 29°53' E 031°00'0 0.0
2014-Sep-02 10:09S 29°53' E 031°00'0 0.0
2014-Sep-02 09:33S 29°53' E 031°00'0 0.0
2014-Sep-02 08:33S 29°53' E 031°00'0 0.0
2014-Sep-02 07:27S 29°53' E 031°00'0 0.0
2014-Sep-02 06:33S 29°53' E 031°00'0 0.0
2014-Sep-02 05:27S 29°53' E 031°00'0 0.0
2014-Sep-02 03:32S 29°53' E 031°00'  
Track history (hours):
 
Tides and Currents Weather Stations Pressure Air Temp Water Temp Dewpoint Dewpoint Depression Visibility Wind Speed Wind Dir Waves Ship Positions

Ikan Parang

Last reported at 2014-Sep-12 02:29 UTC. Time now 2014-Oct-20 18:08 UTC.
Position S 28°56' E 032°09'.
Warning: this ship's position is 38 days out of date.

Length 183 m; draft 10.3 m.

Type: Cargo ship. MMSI: 566238000.

Date/timePositionNaut miles runAvg speedWind from/ knotsBaromVisibWave heightAir tempDewpointWater temp
2014-Sep-12 02:29S 28°56' E 032°09'9 0.2
2014-Sep-10 00:28S 29°05' E 032°08'8 8.9
2014-Sep-09 23:33S 29°13' E 032°06'8 8.3
2014-Sep-09 22:33S 29°21' E 032°04'8 7.7
2014-Sep-09 21:33S 29°27' E 031°59'8 7.5
2014-Sep-09 20:32S 29°32' E 031°53'7 6.8
2014-Sep-09 19:33S 29°37' E 031°47'9 9.3
2014-Sep-09 18:33S 29°40' E 031°37'1010.2
2014-Sep-09 17:33S 29°44' E 031°26'1110.7
2014-Sep-09 16:33S 29°47' E 031°15'1110.6
2014-Sep-09 15:33S 29°52' E 031°04'3 0.5
2014-Sep-09 09:22S 29°53' E 031°00'0 0.0
2014-Sep-09 08:22S 29°53' E 031°00'0 0.0
2014-Sep-09 06:28S 29°53' E 031°00'0 0.0
2014-Sep-09 04:22S 29°53' E 031°00'0 0.0
2014-Sep-09 03:16S 29°53' E 031°00'0 0.0
2014-Sep-09 02:22S 29°53' E 031°00'0 0.0
2014-Sep-09 01:28S 29°53' E 031°00'0 0.0
2014-Sep-09 00:28S 29°53' E 031°00'0 0.0
2014-Sep-08 23:28S 29°53' E 031°00'0 0.0
2014-Sep-08 22:28S 29°53' E 031°00'0 0.0
2014-Sep-08 21:28S 29°53' E 031°00'0 0.0
2014-Sep-08 20:28S 29°53' E 031°00'0 0.0
2014-Sep-08 19:22S 29°53' E 031°00'0 0.0
2014-Sep-08 18:32S 29°53' E 031°00'4 3.7
2014-Sep-08 17:33S 29°51' E 031°04'5 4.6
2014-Sep-08 16:33S 29°48' E 031°08'1 0.6
2014-Sep-08 15:14S 29°48' E 031°09'0 0.0
2014-Sep-08 14:25S 29°48' E 031°09'0 0.0
2014-Sep-08 13:25S 29°48' E 031°09'0 0.0
2014-Sep-08 12:31S 29°48' E 031°09'0 0.0
2014-Sep-08 11:25S 29°48' E 031°09'0 0.0
2014-Sep-08 10:31S 29°48' E 031°09'0 0.0
2014-Sep-08 09:20S 29°48' E 031°09'0 0.0
2014-Sep-08 08:13S 29°48' E 031°09'0 0.1
2014-Sep-08 07:31S 29°48' E 031°09'5 4.6
2014-Sep-08 06:32S 29°51' E 031°05'4 4.3
2014-Sep-08 05:33S 29°52' E 031°01'1 0.6
2014-Sep-08 04:15S 29°53' E 031°00'0 0.0
2014-Sep-08 03:33S 29°53' E 031°00'0 0.0
2014-Sep-08 02:27S 29°53' E 031°00'0 0.0
2014-Sep-08 01:27S 29°53' E 031°00'0 0.0
2014-Sep-08 00:27S 29°53' E 031°00'0 0.0
2014-Sep-07 23:27S 29°53' E 031°00'0 0.0
2014-Sep-07 22:21S 29°53' E 031°00'0 0.0
2014-Sep-07 21:27S 29°53' E 031°00'0 0.0
2014-Sep-07 19:33S 29°53' E 031°00'0 0.0
2014-Sep-07 18:21S 29°53' E 031°00'0 0.0
2014-Sep-07 17:33S 29°53' E 031°00'0 0.0
2014-Sep-07 16:33S 29°53' E 031°00'0 0.0
2014-Sep-07 15:33S 29°53' E 031°00'0 0.0
2014-Sep-07 14:09S 29°53' E 031°00'0 0.0
2014-Sep-07 13:33S 29°53' E 031°00'0 0.0
2014-Sep-07 12:27S 29°53' E 031°00'0 0.0
2014-Sep-07 11:33S 29°53' E 031°00'0 0.0
2014-Sep-07 09:15S 29°53' E 031°00'0 0.0
2014-Sep-07 08:21S 29°53' E 031°00'0 0.0
2014-Sep-07 07:33S 29°53' E 031°00'0 0.0
2014-Sep-07 01:15S 29°53' E 031°00'0 0.0
2014-Sep-07 00:15S 29°53' E 031°00'0 0.0
2014-Sep-06 22:27S 29°53' E 031°00'0 0.0
2014-Sep-06 20:27S 29°53' E 031°00'0 0.0
2014-Sep-06 18:27S 29°53' E 031°00'0 0.0
2014-Sep-06 15:33S 29°53' E 031°00'0 0.0
2014-Sep-06 14:03S 29°53' E 031°00'0 0.0
2014-Sep-06 11:09S 29°53' E 031°00'0 0.0
2014-Sep-06 10:27S 29°53' E 031°00'0 0.0
2014-Sep-06 08:21S 29°53' E 031°00'0 0.0
2014-Sep-06 07:27S 29°53' E 031°00'0 0.0
2014-Sep-06 06:03S 29°53' E 031°00'0 0.0
2014-Sep-06 05:27S 29°53' E 031°00'0 0.0
2014-Sep-06 04:03S 29°53' E 031°00'0 0.0
2014-Sep-06 03:27S 29°53' E 031°00'0 0.0
2014-Sep-06 01:33S 29°53' E 031°00'0 0.0
2014-Sep-06 00:33S 29°53' E 031°00'0 0.0
2014-Sep-05 23:21S 29°53' E 031°00'0 0.0
2014-Sep-05 22:21S 29°53' E 031°00'0 0.0
2014-Sep-05 21:21S 29°53' E 031°00'0 0.0
2014-Sep-05 20:27S 29°53' E 031°00'0 0.0
2014-Sep-05 17:33S 29°53' E 031°00'0 0.0
2014-Sep-05 16:33S 29°53' E 031°00'0 0.0
2014-Sep-05 15:33S 29°53' E 031°00'0 0.0
2014-Sep-05 14:21S 29°53' E 031°00'0 0.0
2014-Sep-05 12:27S 29°53' E 031°00'0 0.0
2014-Sep-05 11:27S 29°53' E 031°00'0 0.0
2014-Sep-05 09:33S 29°53' E 031°00'0 0.0
2014-Sep-05 08:33S 29°53' E 031°00'0 0.0
2014-Sep-05 07:21S 29°53' E 031°00'0 0.0
2014-Sep-05 06:33S 29°53' E 031°00'0 0.0
2014-Sep-05 05:33S 29°53' E 031°00'0 0.0
2014-Sep-05 04:27S 29°53' E 031°00'0 0.0
2014-Sep-05 02:33S 29°53' E 031°00'0 0.0
2014-Sep-05 01:27S 29°53' E 031°00'0 0.0
2014-Sep-05 00:33S 29°53' E 031°00'0 0.0
2014-Sep-04 23:33S 29°53' E 031°00'0 0.0
2014-Sep-04 22:15S 29°53' E 031°00'0 0.0
2014-Sep-04 21:33S 29°53' E 031°00'0 0.0
2014-Sep-04 16:33S 29°53' E 031°00'0 0.0
2014-Sep-04 15:27S 29°53' E 031°00'0 0.0
2014-Sep-04 14:33S 29°53' E 031°00'0 0.0
2014-Sep-04 13:33S 29°53' E 031°00'0 0.0
2014-Sep-04 12:15S 29°53' E 031°00'0 0.0
2014-Sep-04 08:33S 29°53' E 031°00'0 0.0
2014-Sep-04 07:21S 29°53' E 031°00'0 0.0
2014-Sep-04 05:21S 29°53' E 031°00'0 0.0
2014-Sep-04 04:33S 29°53' E 031°00'0 0.0
2014-Sep-04 03:33S 29°53' E 031°00'0 0.0
2014-Sep-04 02:33S 29°53' E 031°00'0 0.0
2014-Sep-04 01:33S 29°53' E 031°00'0 0.0
2014-Sep-04 00:27S 29°53' E 031°00'0 0.0
2014-Sep-03 21:33S 29°53' E 031°00'0 0.0
2014-Sep-03 14:33S 29°53' E 031°00'0 0.0
2014-Sep-03 13:33S 29°53' E 031°00'0 0.0
2014-Sep-03 12:28S 29°53' E 031°00'0 0.0
2014-Sep-03 08:27S 29°53' E 031°00'0 0.0
2014-Sep-03 05:27S 29°53' E 031°00'0 0.0
2014-Sep-03 03:27S 29°53' E 031°00'0 0.0
2014-Sep-03 01:33S 29°53' E 031°00'0 0.0
2014-Sep-02 23:27S 29°53' E 031°00'0 0.0
2014-Sep-02 22:21S 29°53' E 031°00'0 0.0
2014-Sep-02 21:33S 29°53' E 031°00'0 0.0
2014-Sep-02 20:27S 29°53' E 031°00'0 0.0
2014-Sep-02 19:21S 29°53' E 031°00'0 0.0
2014-Sep-02 18:27S 29°53' E 031°00'0 0.0
2014-Sep-02 17:15S 29°53' E 031°00'0 0.0
2014-Sep-02 15:33S 29°53' E 031°00'0 0.0
2014-Sep-02 14:33S 29°53' E 031°00'0 0.0
2014-Sep-02 12:27S 29°53' E 031°00'0 0.0
2014-Sep-02 11:27S 29°53' E 031°00'0 0.0
2014-Sep-02 10:09S 29°53' E 031°00'0 0.0
2014-Sep-02 09:33S 29°53' E 031°00'0 0.0
2014-Sep-02 08:33S 29°53' E 031°00'0 0.0
2014-Sep-02 07:27S 29°53' E 031°00'0 0.0
2014-Sep-02 06:33S 29°53' E 031°00'0 0.0
2014-Sep-02 05:27S 29°53' E 031°00'0 0.0
2014-Sep-02 03:32S 29°53' E 031°00'  

Dump ship's entire track history